Time;durP1;ratioP1;P1;durP2;ratioP2;P2;SDS_P1;SDS_P2;PMS_P1;PMS_P2;Temp;Humidity;BMP_temperature;BMP_pressure;BME280_temperature;BME280_humidity;BME280_pressure;Samples;Min_cycle;Max_cycle;Signal;HPM_P1;HPM_P2
2022/04/11 05:02:10;;;;;;;9.50;6.03;;;1.60;99.90;;;;;;5107072;23;20085;-81
2022/04/11 05:04:37;;;;;;;10.63;6.20;;;1.40;99.90;;;;;;4879517;29;20053;-81
2022/04/11 05:07:05;;;;;;;11.77;6.68;;;1.20;99.90;;;;;;4863336;29;20075;-81
2022/04/11 05:09:32;;;;;;;11.20;6.72;;;0.80;99.90;;;;;;4879828;29;20410;-82
2022/04/11 05:11:59;;;;;;;12.13;7.13;;;0.80;99.90;;;;;;4879743;29;20049;-82
2022/04/11 05:14:26;;;;;;;9.57;6.90;;;1.00;99.90;;;;;;4879583;29;20164;-80
2022/04/11 05:16:53;;;;;;;10.35;6.97;;;1.00;99.90;;;;;;4879499;29;20061;-80
2022/04/11 05:19:21;;;;;;;10.93;7.70;;;1.00;99.90;;;;;;4879390;29;20057;-82
2022/04/11 05:21:48;;;;;;;10.07;6.78;;;1.20;99.90;;;;;;4879424;29;20049;-82
2022/04/11 05:24:15;;;;;;;11.63;7.25;;;1.30;99.90;;;;;;4879463;29;20076;-82
2022/04/11 05:26:43;;;;;;;10.82;6.90;;;1.30;99.90;;;;;;4880143;29;20049;-81
2022/04/11 05:29:10;;;;;;;10.93;7.00;;;1.40;99.90;;;;;;4880427;29;20052;-81
2022/04/11 05:31:37;;;;;;;11.65;7.32;;;1.30;99.90;;;;;;4879759;29;20055;-81
2022/04/11 05:34:05;;;;;;;11.50;7.40;;;1.40;99.90;;;;;;4879440;29;20398;-80
2022/04/11 05:36:34;;;;;;;10.98;7.00;;;1.50;99.90;;;;;;4878576;29;20091;-80
2022/04/11 05:39:01;;;;;;;12.43;7.22;;;1.50;99.90;;;;;;4879195;29;20444;-81
2022/04/11 05:41:28;;;;;;;12.00;6.90;;;1.50;99.90;;;;;;4879303;29;20407;-80
2022/04/11 05:43:55;;;;;;;10.32;7.35;;;1.60;99.90;;;;;;4879494;29;20053;-81
2022/04/11 05:46:22;;;;;;;10.65;7.30;;;1.60;99.90;;;;;;4879332;29;20514;-81
2022/04/11 05:48:49;;;;;;;11.05;6.53;;;1.70;99.90;;;;;;4879901;29;20085;-81
2022/04/11 05:51:16;;;;;;;9.82;6.32;;;1.80;99.90;;;;;;4880513;29;20211;-81
2022/04/11 05:53:44;;;;;;;12.13;6.65;;;2.00;99.90;;;;;;4879451;29;20052;-80
2022/04/11 05:56:11;;;;;;;10.40;6.90;;;2.00;99.90;;;;;;4879096;29;20053;-80
2022/04/11 05:58:38;;;;;;;11.98;6.78;;;1.90;99.90;;;;;;4878969;29;20146;-80
2022/04/11 06:01:05;;;;;;;11.48;7.00;;;2.00;99.90;;;;;;4879068;29;20056;-80
2022/04/11 06:03:32;;;;;;;9.82;6.53;;;1.90;99.90;;;;;;4878860;29;20063;-79
2022/04/11 06:05:59;;;;;;;11.57;7.00;;;2.00;99.90;;;;;;4879060;29;20485;-80
2022/04/11 06:08:26;;;;;;;10.68;6.90;;;1.90;99.90;;;;;;4879028;29;20059;-81
2022/04/11 06:10:55;;;;;;;11.05;7.10;;;1.80;99.90;;;;;;4879162;29;20052;-82
2022/04/11 06:13:22;;;;;;;11.45;6.68;;;2.00;99.90;;;;;;4879893;29;20049;-81
2022/04/11 06:15:49;;;;;;;11.48;7.50;;;2.00;99.90;;;;;;4879470;29;20053;-81
2022/04/11 06:18:16;;;;;;;10.32;6.68;;;1.80;99.90;;;;;;4877963;29;20049;-81
2022/04/11 06:20:45;;;;;;;10.40;6.20;;;2.00;99.90;;;;;;4878860;29;20140;-81
2022/04/11 06:23:12;;;;;;;10.27;6.60;;;2.20;99.90;;;;;;4878975;29;20045;-81
2022/04/11 06:25:39;;;;;;;12.23;7.28;;;2.20;99.90;;;;;;4878768;29;20053;-81
2022/04/11 06:28:08;;;;;;;11.38;7.22;;;2.20;99.90;;;;;;4878917;29;20053;-81
2022/04/11 06:30:35;;;;;;;11.07;7.25;;;2.20;99.90;;;;;;4878969;29;20144;-81
2022/04/11 06:33:02;;;;;;;10.38;6.88;;;2.20;99.90;;;;;;4878892;29;20051;-81
2022/04/11 06:35:29;;;;;;;11.80;7.30;;;2.40;99.90;;;;;;4878644;29;20063;-81
2022/04/11 06:37:56;;;;;;;10.68;6.78;;;2.40;99.90;;;;;;4878802;29;20053;-81
2022/04/11 06:40:23;;;;;;;10.32;6.65;;;2.60;99.90;;;;;;4878669;29;20045;-81
2022/04/11 06:42:50;;;;;;;10.27;6.38;;;2.80;99.90;;;;;;4878862;29;20053;-81
2022/04/11 06:45:18;;;;;;;12.00;6.85;;;2.90;99.90;;;;;;4878553;29;20067;-81
2022/04/11 06:47:47;;;;;;;9.48;6.35;;;2.90;99.90;;;;;;4881212;29;20057;-81
2022/04/11 06:50:15;;;;;;;10.68;6.82;;;2.90;99.90;;;;;;4882172;29;20460;-81
2022/04/11 06:52:42;;;;;;;10.60;6.05;;;3.00;99.90;;;;;;4881951;29;20049;-81
2022/04/11 06:55:10;;;;;;;10.63;7.10;;;3.20;99.90;;;;;;4881701;29;20045;-81
2022/04/11 06:57:37;;;;;;;11.23;7.05;;;3.20;99.90;;;;;;4881851;29;20063;-81
2022/04/11 07:00:06;;;;;;;10.75;6.60;;;3.20;99.90;;;;;;4882051;29;20045;-81
2022/04/11 07:02:34;;;;;;;12.15;6.78;;;3.30;99.90;;;;;;4881782;29;20060;-81
2022/04/11 07:05:01;;;;;;;12.07;6.78;;;3.40;99.90;;;;;;4881808;29;20135;-80
2022/04/11 07:07:28;;;;;;;10.13;6.40;;;3.60;99.90;;;;;;4881728;29;20108;-80
2022/04/11 07:09:56;;;;;;;9.82;6.57;;;3.70;99.90;;;;;;4882041;29;20049;-81
2022/04/11 07:12:23;;;;;;;11.43;6.70;;;3.80;99.90;;;;;;4881869;29;20140;-80
2022/04/11 07:14:51;;;;;;;9.65;6.53;;;3.90;99.90;;;;;;4881765;29;20057;-80
2022/04/11 07:17:18;;;;;;;9.90;6.38;;;4.00;99.90;;;;;;4881740;29;20057;-80
2022/04/11 07:19:47;;;;;;;9.80;6.80;;;4.10;99.90;;;;;;4881929;29;20053;-80
2022/04/11 07:22:14;;;;;;;10.45;7.13;;;4.20;99.90;;;;;;4881548;29;20418;-80
2022/04/11 07:24:41;;;;;;;12.35;6.70;;;4.30;99.90;;;;;;4881398;29;20045;-78
2022/04/11 07:27:09;;;;;;;9.18;6.80;;;4.40;99.90;;;;;;4881804;29;20049;-79
2022/04/11 07:29:36;;;;;;;10.35;6.72;;;4.50;99.90;;;;;;4881810;29;20053;-79
2022/04/11 07:32:03;;;;;;;10.23;6.78;;;4.60;99.90;;;;;;4881404;29;20501;-81
2022/04/11 07:34:30;;;;;;;14.48;7.78;;;4.70;99.90;;;;;;4881374;29;20057;-80
2022/04/11 07:36:58;;;;;;;11.85;7.18;;;4.80;99.90;;;;;;4880948;29;20059;-79
2022/04/11 07:39:25;;;;;;;12.55;7.10;;;4.90;99.90;;;;;;4881508;29;20051;-79
2022/04/11 07:41:54;;;;;;;10.57;6.35;;;5.10;99.90;;;;;;4881583;29;20407;-79
2022/04/11 07:44:21;;;;;;;10.45;6.20;;;5.20;99.90;;;;;;4881267;29;20479;-79
2022/04/11 07:46:48;;;;;;;9.45;5.97;;;5.30;99.90;;;;;;4881455;29;20056;-79
2022/04/11 07:49:15;;;;;;;8.13;5.50;;;5.40;99.90;;;;;;4881101;29;20055;-80
2022/04/11 07:51:42;;;;;;;8.32;4.93;;;5.50;99.90;;;;;;4881221;29;20402;-80
2022/04/11 07:54:10;;;;;;;11.05;5.43;;;5.60;99.90;;;;;;4881704;29;20474;-80
2022/04/11 07:56:37;;;;;;;9.88;5.80;;;5.80;99.90;;;;;;4880860;29;20449;-79
2022/04/11 07:59:05;;;;;;;7.43;4.63;;;5.80;99.90;;;;;;4878930;29;20053;-79
2022/04/11 08:01:32;;;;;;;7.90;4.72;;;5.90;99.90;;;;;;4880244;29;20140;-81
2022/04/11 08:03:58;;;;;;;8.02;5.00;;;6.10;99.90;;;;;;4879266;29;20059;-80
2022/04/11 08:06:26;;;;;;;9.48;6.03;;;6.40;99.90;;;;;;4878390;29;20601;-80
2022/04/11 08:08:53;;;;;;;11.00;6.28;;;6.50;99.90;;;;;;4878360;29;20055;-80
2022/04/11 08:11:21;;;;;;;10.45;5.90;;;6.50;99.90;;;;;;4878466;29;20056;-82
2022/04/11 08:13:48;;;;;;;9.77;6.18;;;6.60;99.90;;;;;;4878516;29;20523;-80
2022/04/11 08:16:15;;;;;;;8.38;5.30;;;6.70;99.90;;;;;;4876361;29;20053;-79
2022/04/11 08:18:43;;;;;;;8.73;4.88;;;6.70;99.90;;;;;;4878100;29;20596;-81
2022/04/11 08:21:10;;;;;;;8.10;4.90;;;6.80;99.70;;;;;;4876885;29;20136;-80
2022/04/11 08:23:37;;;;;;;8.77;4.55;;;6.90;99.00;;;;;;4877906;29;20059;-79
2022/04/11 08:26:04;;;;;;;7.65;4.35;;;7.00;98.60;;;;;;4878207;29;20056;-78
2022/04/11 08:28:33;;;;;;;5.72;3.50;;;7.20;98.20;;;;;;4878083;29;20059;-80
2022/04/11 08:31:00;;;;;;;6.60;3.63;;;7.30;98.20;;;;;;4878072;29;20136;-81
2022/04/11 08:33:27;;;;;;;5.90;3.05;;;7.30;98.00;;;;;;4877988;29;20152;-81
2022/04/11 08:35:54;;;;;;;4.88;2.75;;;7.40;95.50;;;;;;4879436;29;20053;-82
2022/04/11 08:38:21;;;;;;;5.28;2.35;;;7.60;93.50;;;;;;4878522;29;20422;-80
2022/04/11 08:40:48;;;;;;;5.15;2.42;;;7.90;90.80;;;;;;4877845;29;20060;-79
2022/04/11 08:43:17;;;;;;;6.47;2.75;;;8.10;90.50;;;;;;4877641;29;20063;-79
2022/04/11 08:45:46;;;;;;;5.88;2.65;;;8.30;87.60;;;;;;4877417;29;20491;-78
2022/04/11 08:48:14;;;;;;;5.65;2.10;;;8.30;82.40;;;;;;4877585;29;20463;-81
2022/04/11 08:50:41;;;;;;;4.28;1.80;;;8.40;82.60;;;;;;4876708;29;20059;-81
2022/04/11 08:53:08;;;;;;;3.47;1.60;;;8.40;81.00;;;;;;4877950;29;20061;-78
2022/04/11 08:55:35;;;;;;;4.53;1.92;;;8.50;79.10;;;;;;4877710;29;20053;-79
2022/04/11 08:58:02;;;;;;;4.97;1.90;;;8.50;78.10;;;;;;4877321;29;20136;-82
2022/04/11 09:00:31;;;;;;;3.30;1.40;;;8.60;77.30;;;;;;4878003;29;20057;-80
2022/04/11 09:02:59;;;;;;;3.95;1.50;;;8.70;78.50;;;;;;4877424;29;20112;-79
2022/04/11 09:05:29;;;;;;;3.65;1.58;;;8.80;74.90;;;;;;4877543;29;20384;-77
2022/04/11 09:07:57;;;;;;;2.85;1.35;;;8.90;74.70;;;;;;4877418;29;20056;-79
2022/04/11 09:10:26;;;;;;;2.80;1.30;;;9.00;73.10;;;;;;4875822;29;20053;-80
2022/04/11 09:12:55;;;;;;;2.67;1.23;;;9.10;73.40;;;;;;4879444;29;20059;-81
2022/04/11 09:15:24;;;;;;;3.33;1.42;;;9.30;73.30;;;;;;4882245;29;20053;-84
2022/04/11 09:17:53;;;;;;;2.72;1.33;;;9.30;72.50;;;;;;4879417;29;20057;-81
2022/04/11 09:20:23;;;;;;;4.10;1.50;;;9.40;72.20;;;;;;4861609;29;20060;-83
2022/04/11 09:22:50;;;;;;;3.10;1.40;;;9.40;71.40;;;;;;4878513;29;20139;-80
2022/04/11 09:25:19;;;;;;;3.58;1.35;;;9.70;70.60;;;;;;4900206;29;20423;-82
2022/04/11 09:27:47;;;;;;;5.65;1.88;;;9.60;68.20;;;;;;4897491;29;20117;-81
2022/04/11 09:30:20;;;;;;;3.65;1.38;;;9.60;68.30;;;;;;4898756;29;20113;-80
2022/04/11 09:33:05;;;;;;;4.57;2.10;;;9.70;69.20;;;;;;4894653;29;20080;-81
2022/04/11 09:35:35;;;;;;;4.32;1.67;;;9.60;67.70;;;;;;4891354;29;20056;-80
2022/04/11 09:38:10;;;;;;;4.45;1.50;;;9.60;67.00;;;;;;4877966;29;20059;-80
2022/04/11 09:40:43;;;;;;;4.45;1.55;;;9.60;67.10;;;;;;4877326;29;20057;-78
2022/04/11 09:43:12;;;;;;;3.03;1.20;;;9.90;69.20;;;;;;4877177;29;20049;-75
2022/04/11 09:45:44;;;;;;;3.70;1.33;;;9.90;69.00;;;;;;4876685;29;20059;-82
2022/04/11 09:48:17;;;;;;;2.88;1.40;;;10.10;67.10;;;;;;4877100;29;20053;-76
2022/04/11 09:50:45;;;;;;;3.53;1.42;;;10.20;69.30;;;;;;4876794;29;20059;-75
2022/04/11 09:53:14;;;;;;;3.03;1.20;;;10.60;68.70;;;;;;4876614;29;20503;-77
2022/04/11 09:55:43;;;;;;;3.67;1.40;;;10.60;66.80;;;;;;4876632;29;20057;-77
2022/04/11 09:58:10;;;;;;;3.70;1.40;;;10.80;66.50;;;;;;4876474;29;20053;-75
2022/04/11 10:00:40;;;;;;;2.67;1.40;;;10.80;66.10;;;;;;4876496;29;20053;-74
2022/04/11 10:03:08;;;;;;;3.40;1.58;;;11.00;65.30;;;;;;4876465;29;20063;-76
2022/04/11 10:05:36;;;;;;;4.03;1.92;;;10.80;63.90;;;;;;4876605;29;20052;-75
2022/04/11 10:08:08;;;;;;;4.00;1.60;;;11.00;65.60;;;;;;4876430;29;20049;-73
2022/04/11 10:10:39;;;;;;;4.13;1.40;;;10.90;63.60;;;;;;4876711;29;20064;-80
2022/04/11 10:13:09;;;;;;;3.40;1.33;;;11.00;62.80;;;;;;4876449;29;20052;-79
2022/04/11 10:15:39;;;;;;;3.33;1.20;;;11.10;63.30;;;;;;4874725;29;20538;-82
2022/04/11 10:18:08;;;;;;;3.70;1.75;;;11.00;61.20;;;;;;4879517;29;20056;-82
2022/04/11 10:20:38;;;;;;;4.65;2.08;;;11.00;62.00;;;;;;4883341;29;20087;-82
2022/04/11 10:23:28;;;;;;;3.35;1.63;;;11.00;61.70;;;;;;4882852;29;20446;-80
2022/04/11 10:25:59;;;;;;;3.22;1.40;;;11.10;62.80;;;;;;4880914;29;20057;-80
2022/04/11 10:28:28;;;;;;;3.25;1.70;;;11.10;62.60;;;;;;4885633;29;20125;-82
2022/04/11 10:31:10;;;;;;;4.30;1.55;;;11.00;61.60;;;;;;4902519;29;20055;-81
2022/04/11 10:33:43;;;;;;;3.28;1.60;;;11.10;63.00;;;;;;4900027;29;20041;-81
2022/04/11 10:36:31;;;;;;;3.17;1.40;;;11.30;62.90;;;;;;4902390;29;20100;-81
2022/04/11 10:39:25;;;;;;;6.50;3.17;;;11.40;63.70;;;;;;4895319;29;20132;-81
2022/04/11 10:42:12;;;;;;;;;;;11.60;62.30;;;;;;4898983;29;20053;-81
2022/04/11 10:44:42;;;;;;;3.20;1.70;;;11.60;60.10;;;;;;4886320;29;19963;-79
2022/04/11 10:47:29;;;;;;;5.00;2.00;;;11.60;59.30;;;;;;4880131;29;20610;-79
2022/04/11 10:50:29;;;;;;;3.55;1.73;;;11.40;59.70;;;;;;4880169;29;20084;-80
2022/04/11 10:53:23;;;;;;;4.85;1.90;;;11.50;60.50;;;;;;4879758;29;20053;-79
2022/04/11 10:56:04;;;;;;;3.55;1.58;;;11.80;63.00;;;;;;4880095;29;20060;-79
2022/04/11 10:58:51;;;;;;;5.32;1.90;;;11.80;61.00;;;;;;4879670;29;20241;-81
2022/04/11 11:01:57;;;;;;;4.13;1.60;;;11.80;59.90;;;;;;4879607;29;20060;-80
2022/04/11 11:04:30;;;;;;;3.53;1.30;;;11.80;58.60;;;;;;4874971;29;20055;-79
2022/04/11 11:07:29;;;;;;;4.43;1.45;;;11.90;59.60;;;;;;4879675;29;20065;-80
2022/04/11 11:10:01;;;;;;;3.58;1.60;;;11.90;58.60;;;;;;4879298;29;20114;-80
2022/04/11 11:12:30;;;;;;;2.88;1.40;;;12.10;60.60;;;;;;4879734;29;20101;-81
2022/04/11 11:14:57;;;;;;;3.97;1.38;;;12.20;59.30;;;;;;4877818;29;20064;-80
2022/04/11 11:17:55;;;;;;;3.45;1.48;;;12.30;59.70;;;;;;4879296;29;20067;-78
2022/04/11 11:20:23;;;;;;;3.50;1.42;;;12.50;59.30;;;;;;4879435;29;20057;-79
2022/04/11 11:23:17;;;;;;;2.78;1.30;;;12.50;59.20;;;;;;4879823;29;20077;-82
2022/04/11 11:25:44;;;;;;;3.85;1.48;;;12.60;58.10;;;;;;4878225;29;20060;-80
2022/04/11 11:28:15;;;;;;;5.40;1.70;;;12.70;58.30;;;;;;4879492;29;20063;-81
2022/04/11 11:30:42;;;;;;;2.83;1.33;;;12.80;58.20;;;;;;4879654;29;20057;-81
2022/04/11 11:33:15;;;;;;;4.25;1.50;;;12.80;57.70;;;;;;4876886;29;20410;-80
2022/04/11 11:35:51;;;;;;;3.58;1.40;;;12.90;58.00;;;;;;4879539;29;20049;-82
2022/04/11 11:38:23;;;;;;;3.42;1.50;;;13.00;58.40;;;;;;4879418;29;20135;-80
2022/04/11 11:40:56;;;;;;;3.83;1.52;;;13.00;58.60;;;;;;4879982;29;20471;-81
2022/04/11 11:43:26;;;;;;;2.70;1.20;;;13.00;58.00;;;;;;4879717;29;20052;-82
2022/04/11 11:45:57;;;;;;;2.53;1.20;;;13.10;55.50;;;;;;4878751;29;20059;-82
2022/04/11 11:48:26;;;;;;;2.72;1.10;;;13.00;54.70;;;;;;4879649;29;20049;-80
2022/04/11 11:50:56;;;;;;;3.58;1.65;;;13.20;56.10;;;;;;4879597;29;20052;-82
2022/04/11 11:53:25;;;;;;;3.17;1.50;;;13.30;55.30;;;;;;4879345;29;20053;-81
2022/04/11 11:55:58;;;;;;;3.85;1.35;;;13.30;53.80;;;;;;4878924;29;20057;-81
2022/04/11 11:58:37;;;;;;;2.63;1.27;;;13.40;54.80;;;;;;4878920;29;20084;-80
2022/04/11 12:01:06;;;;;;;2.55;1.30;;;13.70;54.80;;;;;;4878827;29;20063;-81
2022/04/11 12:06:24;;;;;;;3.50;1.60;;;13.70;54.30;;;;;;4879166;29;20435;-80
2022/04/11 12:08:56;;;;;;;4.47;1.70;;;13.70;52.10;;;;;;4878576;29;20563;-81
2022/04/11 12:11:25;;;;;;;3.30;1.40;;;13.80;52.70;;;;;;4877474;29;20080;-81
2022/04/11 12:14:01;;;;;;;3.67;1.40;;;14.10;53.50;;;;;;4878581;29;20052;-83
2022/04/11 12:16:29;;;;;;;4.05;1.27;;;14.00;52.50;;;;;;4876339;29;20060;-80
2022/04/11 12:18:58;;;;;;;2.47;1.10;;;14.20;51.90;;;;;;4879252;29;20601;-82
2022/04/11 12:21:34;;;;;;;3.35;1.40;;;14.40;52.30;;;;;;4880175;29;20067;-81
2022/04/11 12:24:02;;;;;;;10.15;4.90;;;14.60;52.40;;;;;;4878966;29;20068;-82
2022/04/11 12:26:31;;;;;;;4.68;2.20;;;14.50;52.30;;;;;;4878800;29;20064;-82
2022/04/11 12:29:02;;;;;;;3.50;1.80;;;14.70;55.10;;;;;;4878353;29;20056;-77
2022/04/11 12:31:29;;;;;;;4.60;1.40;;;15.00;58.80;;;;;;4877819;29;20057;-77
2022/04/11 12:33:56;;;;;;;4.38;1.73;;;15.30;54.20;;;;;;4877867;29;20056;-81
2022/04/11 12:36:27;;;;;;;2.97;1.30;;;15.40;56.10;;;;;;4879551;29;20057;-79
2022/04/11 12:38:56;;;;;;;3.88;1.30;;;15.60;59.70;;;;;;4880364;29;20439;-78
2022/04/11 12:41:33;;;;;;;3.42;1.42;;;15.80;58.00;;;;;;4874167;29;20053;-79
2022/04/11 12:44:13;;;;;;;3.38;1.50;;;15.70;53.20;;;;;;4874945;29;20053;-79
2022/04/11 12:46:43;;;;;;;3.47;1.40;;;15.40;55.70;;;;;;4865855;29;20168;-79
2022/04/11 12:49:13;;;;;;;3.70;1.52;;;15.70;53.50;;;;;;4859393;29;20426;-80
2022/04/11 12:51:40;;;;;;;2.70;1.20;;;15.80;48.70;;;;;;4858984;29;20053;-80
2022/04/11 12:54:11;;;;;;;3.08;1.38;;;15.80;52.00;;;;;;4859409;29;20053;-78
2022/04/11 12:56:44;;;;;;;5.03;2.40;;;16.20;54.60;;;;;;4858882;29;20053;-78
2022/04/11 12:59:28;;;;;;;3.63;1.67;;;16.40;52.00;;;;;;4872102;29;20064;-80
2022/04/11 13:01:59;;;;;;;2.88;1.20;;;16.60;49.30;;;;;;4877303;29;20493;-78
2022/04/11 13:04:26;;;;;;;2.78;1.20;;;16.70;49.30;;;;;;4877431;29;20059;-79
2022/04/11 13:06:53;;;;;;;2.72;1.30;;;17.00;47.50;;;;;;4877072;29;20049;-79
2022/04/11 13:09:23;;;;;;;4.68;1.60;;;16.80;47.00;;;;;;4876949;29;20086;-78
2022/04/11 13:11:52;;;;;;;2.70;1.10;;;17.00;47.60;;;;;;4877092;29;20053;-79
2022/04/11 13:14:21;;;;;;;3.35;1.58;;;17.40;50.70;;;;;;4876813;29;20055;-79
2022/04/11 13:19:32;;;;;;;3.65;1.40;;;17.60;47.70;;;;;;4877162;29;20157;-83
2022/04/11 13:22:00;;;;;;;3.20;1.30;;;17.50;44.60;;;;;;4876644;29;20055;-80
2022/04/11 13:24:27;;;;;;;4.72;1.77;;;17.70;44.70;;;;;;4860447;29;20049;-77
2022/04/11 13:26:54;;;;;;;2.72;1.40;;;17.90;47.10;;;;;;4876719;29;20076;-78
2022/04/11 13:29:23;;;;;;;3.15;1.55;;;17.80;44.00;;;;;;4876236;29;20484;-79
2022/04/11 13:31:50;;;;;;;3.35;1.50;;;17.90;44.20;;;;;;4876749;29;20049;-79
2022/04/11 13:34:17;;;;;;;3.38;1.40;;;17.80;45.10;;;;;;4876320;29;20048;-78
2022/04/11 13:36:44;;;;;;;3.13;1.40;;;18.10;48.90;;;;;;4875679;29;20041;-79
2022/04/11 13:39:11;;;;;;;2.30;1.10;;;18.30;47.60;;;;;;4876662;29;20063;-80
2022/04/11 13:41:38;;;;;;;2.67;1.20;;;18.80;45.70;;;;;;4877073;29;20059;-78
2022/04/11 13:44:05;;;;;;;4.00;1.50;;;18.70;44.00;;;;;;4875149;29;20751;-79
2022/04/11 13:46:34;;;;;;;3.10;1.48;;;18.90;44.40;;;;;;4876402;29;20053;-79
2022/04/11 13:49:01;;;;;;;3.10;1.10;;;19.00;40.70;;;;;;4876473;29;20053;-78
2022/04/11 13:51:28;;;;;;;3.45;1.30;;;19.10;45.30;;;;;;4876360;29;20053;-79
2022/04/11 13:53:56;;;;;;;2.97;1.13;;;19.70;44.60;;;;;;4876247;29;20509;-79
2022/04/11 13:56:23;;;;;;;2.70;1.10;;;20.10;43.30;;;;;;4876642;29;20495;-77
2022/04/11 13:58:50;;;;;;;2.33;1.20;;;20.30;41.70;;;;;;4879902;29;20427;-78
2022/04/11 14:01:17;;;;;;;3.33;1.30;;;20.60;42.20;;;;;;4880221;29;20071;-79
2022/04/11 14:03:46;;;;;;;2.88;1.52;;;20.60;43.00;;;;;;4880251;29;20049;-78
2022/04/11 14:06:13;;;;;;;3.30;1.40;;;21.50;41.20;;;;;;4880037;29;20049;-78
2022/04/11 14:08:41;;;;;;;3.08;1.42;;;20.90;38.60;;;;;;4880342;29;20520;-79
2022/04/11 14:11:08;;;;;;;2.80;1.50;;;21.70;41.00;;;;;;4879786;29;20144;-79
2022/04/11 14:13:36;;;;;;;3.50;1.23;;;22.30;41.20;;;;;;4879836;29;20057;-78
2022/04/11 14:16:05;;;;;;;2.53;1.20;;;21.50;39.90;;;;;;4878326;29;20136;-78
2022/04/11 14:18:32;;;;;;;3.17;1.42;;;22.60;41.20;;;;;;4880139;29;20057;-79
2022/04/11 14:21:00;;;;;;;3.67;1.10;;;23.50;38.90;;;;;;4879528;29;20144;-79
2022/04/11 14:23:29;;;;;;;2.80;1.10;;;23.80;35.00;;;;;;4879874;29;20403;-77
2022/04/11 14:25:56;;;;;;;2.83;1.27;;;24.20;37.00;;;;;;4879985;29;20052;-77
2022/04/11 14:28:23;;;;;;;3.42;1.58;;;24.70;36.60;;;;;;4879656;29;20064;-77
2022/04/11 14:30:50;;;;;;;3.00;1.25;;;24.40;38.10;;;;;;4879677;29;20053;-76
2022/04/11 14:33:17;;;;;;;2.42;1.20;;;24.50;36.90;;;;;;4879217;29;20509;-78
2022/04/11 14:35:45;;;;;;;3.08;1.45;;;25.00;35.00;;;;;;4880340;29;20071;-77
2022/04/11 14:38:14;;;;;;;2.90;1.30;;;25.80;34.60;;;;;;4880007;29;20065;-78
2022/04/11 14:40:43;;;;;;;3.75;1.20;;;25.60;33.40;;;;;;4879604;29;20135;-77
2022/04/11 14:43:11;;;;;;;3.08;1.50;;;26.50;35.00;;;;;;4879809;29;20053;-77
2022/04/11 14:45:38;;;;;;;2.47;1.35;;;27.00;33.10;;;;;;4879362;29;20117;-78
2022/04/11 14:48:08;;;;;;;3.00;1.30;;;27.10;32.50;;;;;;4879468;29;20056;-75
2022/04/11 14:50:38;;;;;;;3.72;1.30;;;27.50;33.60;;;;;;4876057;29;20109;-77
2022/04/11 14:53:07;;;;;;;3.08;1.50;;;27.00;33.10;;;;;;4877252;29;20053;-77
2022/04/11 14:55:35;;;;;;;2.60;1.20;;;27.50;33.20;;;;;;4876391;29;20049;-78
2022/04/11 14:58:02;;;;;;;2.72;1.25;;;27.30;32.80;;;;;;4877541;29;20053;-77
2022/04/11 15:00:29;;;;;;;3.83;1.30;;;27.80;32.20;;;;;;4877688;29;20075;-78
2022/04/11 15:02:57;;;;;;;2.92;1.35;;;28.20;32.80;;;;;;4877532;29;20419;-77
2022/04/11 15:05:24;;;;;;;2.70;1.27;;;27.90;33.00;;;;;;4877480;29;20075;-77
2022/04/11 15:07:51;;;;;;;3.00;1.30;;;28.50;32.60;;;;;;4877879;29;20053;-77
2022/04/11 15:10:18;;;;;;;2.95;1.20;;;28.50;32.70;;;;;;4877060;29;20586;-77
2022/04/11 15:12:47;;;;;;;3.97;1.50;;;28.80;32.60;;;;;;4873699;29;20045;-74
2022/04/11 15:15:14;;;;;;;5.78;3.05;;;29.00;32.00;;;;;;4895683;29;20076;-78
2022/04/11 15:17:42;;;;;;;4.05;1.80;;;29.30;31.30;;;;;;4896127;29;20049;-77
2022/04/11 15:20:10;;;;;;;6.32;2.53;;;28.80;31.00;;;;;;4897004;29;20051;-77
2022/04/11 15:22:37;;;;;;;3.00;1.75;;;28.20;32.00;;;;;;4895486;29;20036;-76
2022/04/11 15:25:06;;;;;;;2.90;1.30;;;28.00;31.10;;;;;;4894727;29;20064;-77
2022/04/11 15:27:33;;;;;;;3.17;1.55;;;28.20;30.90;;;;;;4891426;29;20499;-75
2022/04/11 15:30:03;;;;;;;2.30;1.20;;;27.90;30.80;;;;;;4876288;29;20132;-79
2022/04/11 15:32:31;;;;;;;3.05;1.83;;;27.50;31.90;;;;;;4877555;29;20059;-76
2022/04/11 15:34:58;;;;;;;2.75;1.48;;;27.40;33.80;;;;;;4877536;29;20047;-78
2022/04/11 15:37:31;;;;;;;3.22;1.25;;;27.70;34.20;;;;;;4876280;29;20048;-77
2022/04/11 15:39:58;;;;;;;3.67;1.65;;;27.50;34.60;;;;;;4877061;29;20045;-78
2022/04/11 15:42:25;;;;;;;2.97;1.27;;;27.20;33.80;;;;;;4876217;29;20052;-78
2022/04/11 15:44:52;;;;;;;3.05;1.40;;;27.70;37.10;;;;;;4877193;29;20059;-76
2022/04/11 15:47:21;;;;;;;3.03;1.50;;;27.10;32.80;;;;;;4878639;29;20060;-79
2022/04/11 15:49:48;;;;;;;3.40;1.50;;;27.30;34.10;;;;;;4877620;29;20060;-76
2022/04/11 15:52:15;;;;;;;3.47;1.60;;;27.40;32.50;;;;;;4878555;29;20052;-78
2022/04/11 15:54:42;;;;;;;2.90;1.42;;;27.80;33.90;;;;;;4874703;29;20053;-78
2022/04/11 15:57:09;;;;;;;3.30;1.50;;;27.40;31.70;;;;;;4877688;29;20403;-77
2022/04/11 15:59:36;;;;;;;2.67;1.52;;;27.50;31.40;;;;;;4869040;29;20478;-78
2022/04/11 16:02:05;;;;;;;3.25;1.45;;;27.30;32.10;;;;;;4861245;29;20061;-78
2022/04/11 16:04:34;;;;;;;3.30;1.70;;;27.20;30.50;;;;;;4880037;29;20053;-88
2022/04/11 16:07:02;;;;;;;2.88;1.60;;;26.80;31.70;;;;;;4881306;29;20052;-88
2022/04/11 16:09:29;;;;;;;3.95;2.50;;;27.10;33.80;;;;;;4866123;29;20053;-88
2022/04/11 16:11:56;;;;;;;3.67;2.00;;;26.60;32.10;;;;;;4882398;29;20035;-85
2022/04/11 16:14:22;;;;;;;4.40;2.70;;;26.00;32.90;;;;;;4888878;29;20057;-85
2022/04/11 16:16:49;;;;;;;4.15;2.53;;;26.10;31.60;;;;;;4889198;29;20145;-85
2022/04/11 16:19:17;;;;;;;3.83;2.00;;;26.10;32.40;;;;;;4883521;29;20045;-86
2022/04/11 16:21:45;;;;;;;2.85;1.40;;;25.70;33.10;;;;;;4880898;29;20049;-86
2022/04/11 16:24:12;;;;;;;3.00;1.50;;;25.80;33.60;;;;;;4879429;29;20049;-87
2022/04/11 16:26:40;;;;;;;2.97;1.45;;;25.40;33.10;;;;;;4878695;29;20071;-85
2022/04/11 16:29:07;;;;;;;2.50;1.17;;;25.50;33.60;;;;;;4879938;29;20505;-87
2022/04/11 16:31:34;;;;;;;3.45;1.50;;;25.10;32.20;;;;;;4876504;29;20045;-89
2022/04/11 16:34:02;;;;;;;3.47;1.45;;;24.70;34.20;;;;;;4858904;29;20053;-89
2022/04/11 16:36:29;;;;;;;3.00;1.67;;;24.70;33.70;;;;;;4880234;29;20059;-87
2022/04/11 16:38:58;;;;;;;3.88;1.50;;;24.80;33.20;;;;;;4881550;29;20053;-89
2022/04/11 16:41:26;;;;;;;3.13;1.70;;;24.30;33.50;;;;;;4881218;29;20049;-79
2022/04/11 16:43:53;;;;;;;4.20;1.58;;;24.20;33.80;;;;;;4875123;29;20084;-78
2022/04/11 16:46:20;;;;;;;3.35;1.60;;;23.90;34.30;;;;;;4874871;29;20059;-85
2022/04/11 16:48:47;;;;;;;3.28;1.52;;;23.80;34.20;;;;;;4870262;29;20053;-83
2022/04/11 16:51:14;;;;;;;3.33;1.70;;;23.80;34.10;;;;;;4896284;29;20104;-85
2022/04/11 16:53:41;;;;;;;3.53;1.58;;;23.60;35.10;;;;;;4891805;29;20041;-81
2022/04/11 16:56:11;;;;;;;2.78;1.40;;;23.70;35.30;;;;;;4894049;29;20132;-81
2022/04/11 16:58:38;;;;;;;2.72;1.30;;;23.50;35.00;;;;;;4885733;29;20407;-75
2022/04/11 17:01:06;;;;;;;2.88;1.30;;;23.40;34.90;;;;;;4876144;29;20060;-81
2022/04/11 17:03:35;;;;;;;3.10;1.30;;;23.20;37.70;;;;;;4875474;29;20064;-81
2022/04/11 17:06:03;;;;;;;2.80;1.50;;;23.00;36.10;;;;;;4869934;29;20048;-80
2022/04/11 17:08:30;;;;;;;2.50;1.30;;;22.90;37.00;;;;;;4874681;29;20048;-80
2022/04/11 17:10:58;;;;;;;3.30;1.70;;;22.60;36.90;;;;;;4874440;29;20065;-81
2022/04/11 17:13:26;;;;;;;3.00;1.55;;;22.30;36.60;;;;;;4877412;29;20056;-82
2022/04/11 17:18:38;;;;;;;3.20;1.40;;;21.60;36.30;;;;;;4878403;29;20077;-77
2022/04/11 17:21:09;;;;;;;3.05;1.60;;;21.20;37.40;;;;;;4871685;29;20057;-80
2022/04/11 17:23:38;;;;;;;3.55;1.58;;;21.10;37.50;;;;;;4876272;29;20045;-86
2022/04/11 17:26:07;;;;;;;3.72;1.67;;;20.70;38.20;;;;;;4879233;29;20148;-84
2022/04/11 17:28:37;;;;;;;3.25;1.50;;;20.50;38.30;;;;;;4878508;29;20092;-83
2022/04/11 17:31:05;;;;;;;3.33;1.48;;;20.20;38.90;;;;;;4877554;29;20105;-82
2022/04/11 17:33:32;;;;;;;3.75;1.40;;;20.00;38.90;;;;;;4877781;29;20056;-84
2022/04/11 17:36:00;;;;;;;2.70;1.20;;;19.80;39.50;;;;;;4881681;29;20049;-84
2022/04/11 17:38:27;;;;;;;2.70;1.25;;;19.70;39.70;;;;;;4879675;29;20049;-83
2022/04/11 17:40:55;;;;;;;3.50;1.50;;;19.30;39.20;;;;;;4877297;29;20045;-81
2022/04/11 17:43:24;;;;;;;3.60;1.50;;;19.20;40.00;;;;;;4877362;29;20073;-84
2022/04/11 17:46:00;;;;;;;3.05;1.30;;;19.10;40.60;;;;;;4879428;29;20063;-85
2022/04/11 17:48:30;;;;;;;3.08;1.38;;;19.00;41.30;;;;;;4878091;29;20049;-82
2022/04/11 17:50:57;;;;;;;4.93;1.70;;;18.80;41.40;;;;;;4877475;29;20060;-88
2022/04/11 17:53:24;;;;;;;3.45;1.48;;;18.60;41.10;;;;;;4877672;29;20057;-83
2022/04/11 17:55:51;;;;;;;3.60;1.50;;;18.40;41.60;;;;;;4876424;29;20562;-81
2022/04/11 17:58:18;;;;;;;3.80;1.60;;;18.40;41.50;;;;;;4875485;29;20057;-84
2022/04/11 18:00:45;;;;;;;3.35;1.40;;;18.20;41.90;;;;;;4861069;29;20053;-78
2022/04/11 18:03:15;;;;;;;3.65;1.30;;;18.50;42.30;;;;;;4876642;29;20080;-78
2022/04/11 18:05:43;;;;;;;3.38;1.50;;;18.00;40.70;;;;;;4876267;29;20056;-81
2022/04/11 18:08:10;;;;;;;2.53;1.20;;;17.70;41.40;;;;;;4876238;29;20053;-77